sensor_id;sensor_type;location;lat;lon;timestamp;temperature;humidity
17938;DHT22;16051;53.024;8.630;2022-07-29T00:00:15;17.10;98.60
17938;DHT22;16051;53.024;8.630;2022-07-29T00:04:25;17.10;98.80
17938;DHT22;16051;53.024;8.630;2022-07-29T00:08:27;17.10;99.20
17938;DHT22;16051;53.024;8.630;2022-07-29T00:12:29;17.00;99.40
17938;DHT22;16051;53.024;8.630;2022-07-29T00:16:31;17.00;99.70
17938;DHT22;16051;53.024;8.630;2022-07-29T00:20:34;16.90;99.90
17938;DHT22;16051;53.024;8.630;2022-07-29T00:24:36;16.90;99.90
17938;DHT22;16051;53.024;8.630;2022-07-29T00:28:39;16.90;99.90
17938;DHT22;16051;53.024;8.630;2022-07-29T00:32:41;16.90;99.90
17938;DHT22;16051;53.024;8.630;2022-07-29T00:36:44;16.90;99.90
17938;DHT22;16051;53.024;8.630;2022-07-29T00:40:47;16.80;99.90
17938;DHT22;16051;53.024;8.630;2022-07-29T00:44:49;16.80;99.90
17938;DHT22;16051;53.024;8.630;2022-07-29T00:48:51;16.80;99.90
17938;DHT22;16051;53.024;8.630;2022-07-29T00:53:22;16.80;99.90
17938;DHT22;16051;53.024;8.630;2022-07-29T00:57:26;16.80;99.90
17938;DHT22;16051;53.024;8.630;2022-07-29T01:01:28;16.80;99.90
17938;DHT22;16051;53.024;8.630;2022-07-29T01:05:30;16.80;99.90
17938;DHT22;16051;53.024;8.630;2022-07-29T01:09:34;16.70;99.90
17938;DHT22;16051;53.024;8.630;2022-07-29T01:13:38;16.70;99.90
17938;DHT22;16051;53.024;8.630;2022-07-29T01:17:44;16.70;99.90
17938;DHT22;16051;53.024;8.630;2022-07-29T01:21:53;16.70;99.90
17938;DHT22;16051;53.024;8.630;2022-07-29T01:26:17;16.70;99.90
17938;DHT22;16051;53.024;8.630;2022-07-29T01:30:32;16.60;99.90
17938;DHT22;16051;53.024;8.630;2022-07-29T01:34:43;16.60;99.90
17938;DHT22;16051;53.024;8.630;2022-07-29T01:38:58;16.60;99.90
17938;DHT22;16051;53.024;8.630;2022-07-29T01:43:10;16.60;99.90
17938;DHT22;16051;53.024;8.630;2022-07-29T01:47:19;16.60;99.90
17938;DHT22;16051;53.024;8.630;2022-07-29T01:51:45;16.50;99.90
17938;DHT22;16051;53.024;8.630;2022-07-29T01:55:51;16.50;99.90
17938;DHT22;16051;53.024;8.630;2022-07-29T01:59:57;16.50;99.90
17938;DHT22;16051;53.024;8.630;2022-07-29T02:04:03;16.50;99.90
17938;DHT22;16051;53.024;8.630;2022-07-29T02:08:08;16.40;99.90
17938;DHT22;16051;53.024;8.630;2022-07-29T02:12:12;16.40;99.90
17938;DHT22;16051;53.024;8.630;2022-07-29T02:16:17;16.40;99.90
17938;DHT22;16051;53.024;8.630;2022-07-29T02:20:25;16.40;99.90
17938;DHT22;16051;53.024;8.630;2022-07-29T02:24:30;16.40;99.90
17938;DHT22;16051;53.024;8.630;2022-07-29T02:28:45;16.30;99.90
17938;DHT22;16051;53.024;8.630;2022-07-29T02:32:49;16.30;99.90
17938;DHT22;16051;53.024;8.630;2022-07-29T02:36:55;16.30;99.90
17938;DHT22;16051;53.024;8.630;2022-07-29T02:40:58;16.30;99.90
17938;DHT22;16051;53.024;8.630;2022-07-29T02:45:03;16.30;99.90
17938;DHT22;16051;53.024;8.630;2022-07-29T02:49:10;16.20;99.90
17938;DHT22;16051;53.024;8.630;2022-07-29T02:53:21;16.20;99.90
17938;DHT22;16051;53.024;8.630;2022-07-29T02:57:31;16.20;99.90
17938;DHT22;16051;53.024;8.630;2022-07-29T03:01:39;16.20;99.90
17938;DHT22;16051;53.024;8.630;2022-07-29T03:06:08;16.20;99.90
17938;DHT22;16051;53.024;8.630;2022-07-29T03:10:13;16.20;99.90
17938;DHT22;16051;53.024;8.630;2022-07-29T03:14:17;16.20;99.90
17938;DHT22;16051;53.024;8.630;2022-07-29T03:18:20;16.20;99.90
17938;DHT22;16051;53.024;8.630;2022-07-29T03:22:22;16.10;99.90
17938;DHT22;16051;53.024;8.630;2022-07-29T03:26:27;16.10;99.90
17938;DHT22;16051;53.024;8.630;2022-07-29T03:30:29;16.10;99.90
17938;DHT22;16051;53.024;8.630;2022-07-29T03:34:31;16.10;99.90
17938;DHT22;16051;53.024;8.630;2022-07-29T03:38:35;16.10;99.90
17938;DHT22;16051;53.024;8.630;2022-07-29T03:42:40;16.10;99.90
17938;DHT22;16051;53.024;8.630;2022-07-29T03:46:45;16.00;99.90
17938;DHT22;16051;53.024;8.630;2022-07-29T03:50:51;16.00;99.90
17938;DHT22;16051;53.024;8.630;2022-07-29T03:54:53;16.00;99.90
17938;DHT22;16051;53.024;8.630;2022-07-29T03:58:59;16.00;99.90
17938;DHT22;16051;53.024;8.630;2022-07-29T04:03:04;16.00;99.90
17938;DHT22;16051;53.024;8.630;2022-07-29T04:07:06;16.00;99.90
17938;DHT22;16051;53.024;8.630;2022-07-29T04:11:08;16.00;99.90
17938;DHT22;16051;53.024;8.630;2022-07-29T04:15:12;16.00;99.90
17938;DHT22;16051;53.024;8.630;2022-07-29T04:19:14;16.10;99.90
17938;DHT22;16051;53.024;8.630;2022-07-29T04:23:50;16.10;99.90
17938;DHT22;16051;53.024;8.630;2022-07-29T04:27:52;16.00;99.90
17938;DHT22;16051;53.024;8.630;2022-07-29T04:32:05;16.10;99.90
17938;DHT22;16051;53.024;8.630;2022-07-29T04:36:07;16.10;99.90
17938;DHT22;16051;53.024;8.630;2022-07-29T04:40:11;16.20;99.90
17938;DHT22;16051;53.024;8.630;2022-07-29T04:44:13;16.20;99.90
17938;DHT22;16051;53.024;8.630;2022-07-29T04:48:17;16.20;99.90
17938;DHT22;16051;53.024;8.630;2022-07-29T04:52:19;16.20;99.90
17938;DHT22;16051;53.024;8.630;2022-07-29T04:56:21;16.30;99.90
17938;DHT22;16051;53.024;8.630;2022-07-29T05:00:43;16.30;99.90
17938;DHT22;16051;53.024;8.630;2022-07-29T05:04:47;16.40;99.90
17938;DHT22;16051;53.024;8.630;2022-07-29T05:08:49;16.40;99.90
17938;DHT22;16051;53.024;8.630;2022-07-29T05:12:51;16.50;99.90
17938;DHT22;16051;53.024;8.630;2022-07-29T05:16:53;16.60;99.90
17938;DHT22;16051;53.024;8.630;2022-07-29T05:20:58;16.60;99.90
17938;DHT22;16051;53.024;8.630;2022-07-29T05:25:01;16.60;99.90
17938;DHT22;16051;53.024;8.630;2022-07-29T05:29:03;16.70;99.90
17938;DHT22;16051;53.024;8.630;2022-07-29T05:33:05;16.70;99.90
17938;DHT22;16051;53.024;8.630;2022-07-29T05:37:27;16.80;99.90
17938;DHT22;16051;53.024;8.630;2022-07-29T05:41:31;16.80;99.90
17938;DHT22;16051;53.024;8.630;2022-07-29T05:45:34;16.90;99.90
17938;DHT22;16051;53.024;8.630;2022-07-29T05:49:36;17.00;99.90
17938;DHT22;16051;53.024;8.630;2022-07-29T05:53:39;17.00;99.90
17938;DHT22;16051;53.024;8.630;2022-07-29T05:57:41;17.10;99.90
17938;DHT22;16051;53.024;8.630;2022-07-29T06:01:45;17.20;99.90
17938;DHT22;16051;53.024;8.630;2022-07-29T06:05:48;17.20;99.90
17938;DHT22;16051;53.024;8.630;2022-07-29T06:09:51;17.30;99.90
17938;DHT22;16051;53.024;8.630;2022-07-29T06:13:53;17.40;99.90
17938;DHT22;16051;53.024;8.630;2022-07-29T06:18:12;17.50;99.90
17938;DHT22;16051;53.024;8.630;2022-07-29T06:22:15;17.60;99.90
17938;DHT22;16051;53.024;8.630;2022-07-29T06:26:19;17.70;99.90
17938;DHT22;16051;53.024;8.630;2022-07-29T06:30:21;17.80;99.90
17938;DHT22;16051;53.024;8.630;2022-07-29T06:34:23;18.00;99.90
17938;DHT22;16051;53.024;8.630;2022-07-29T06:38:26;18.10;99.90
17938;DHT22;16051;53.024;8.630;2022-07-29T06:42:37;18.30;99.90
17938;DHT22;16051;53.024;8.630;2022-07-29T06:46:44;18.40;99.90
17938;DHT22;16051;53.024;8.630;2022-07-29T06:50:52;18.40;99.90
17938;DHT22;16051;53.024;8.630;2022-07-29T06:54:55;18.50;99.90
17938;DHT22;16051;53.024;8.630;2022-07-29T06:58:58;18.70;99.90
17938;DHT22;16051;53.024;8.630;2022-07-29T07:03:00;18.80;99.90
17938;DHT22;16051;53.024;8.630;2022-07-29T07:07:03;18.90;99.90
17938;DHT22;16051;53.024;8.630;2022-07-29T07:11:05;19.00;99.90
17938;DHT22;16051;53.024;8.630;2022-07-29T07:15:09;19.40;99.90
17938;DHT22;16051;53.024;8.630;2022-07-29T07:19:11;19.60;99.90
17938;DHT22;16051;53.024;8.630;2022-07-29T07:23:14;19.80;99.90
17938;DHT22;16051;53.024;8.630;2022-07-29T07:27:16;19.70;99.90
17938;DHT22;16051;53.024;8.630;2022-07-29T07:31:19;19.80;99.90
17938;DHT22;16051;53.024;8.630;2022-07-29T07:35:29;19.90;99.90
17938;DHT22;16051;53.024;8.630;2022-07-29T07:39:32;20.00;99.90
17938;DHT22;16051;53.024;8.630;2022-07-29T07:43:34;20.10;99.90
17938;DHT22;16051;53.024;8.630;2022-07-29T07:47:38;20.40;99.90
17938;DHT22;16051;53.024;8.630;2022-07-29T07:51:40;20.70;99.90
17938;DHT22;16051;53.024;8.630;2022-07-29T07:55:43;21.20;99.90
17938;DHT22;16051;53.024;8.630;2022-07-29T07:59:46;21.90;99.90
17938;DHT22;16051;53.024;8.630;2022-07-29T08:04:13;22.40;99.90
17938;DHT22;16051;53.024;8.630;2022-07-29T08:08:15;22.20;99.90
17938;DHT22;16051;53.024;8.630;2022-07-29T08:12:17;22.10;99.90
17938;DHT22;16051;53.024;8.630;2022-07-29T08:16:19;22.10;99.90
17938;DHT22;16051;53.024;8.630;2022-07-29T08:20:22;22.10;99.90
17938;DHT22;16051;53.024;8.630;2022-07-29T08:24:25;22.50;99.90
17938;DHT22;16051;53.024;8.630;2022-07-29T08:28:52;22.90;99.90
17938;DHT22;16051;53.024;8.630;2022-07-29T08:32:54;22.80;99.90
17938;DHT22;16051;53.024;8.630;2022-07-29T08:36:58;22.80;99.90
17938;DHT22;16051;53.024;8.630;2022-07-29T08:41:01;23.20;99.90
17938;DHT22;16051;53.024;8.630;2022-07-29T08:45:04;23.20;99.40
17938;DHT22;16051;53.024;8.630;2022-07-29T08:49:07;23.60;99.90
17938;DHT22;16051;53.024;8.630;2022-07-29T08:53:13;24.30;99.60
17938;DHT22;16051;53.024;8.630;2022-07-29T08:57:17;24.60;98.40
17938;DHT22;16051;53.024;8.630;2022-07-29T09:01:25;24.70;96.90
17938;DHT22;16051;53.024;8.630;2022-07-29T09:05:31;24.70;96.30
17938;DHT22;16051;53.024;8.630;2022-07-29T09:09:35;24.70;94.50
17938;DHT22;16051;53.024;8.630;2022-07-29T09:13:41;25.10;93.80
17938;DHT22;16051;53.024;8.630;2022-07-29T09:17:44;25.20;95.10
17938;DHT22;16051;53.024;8.630;2022-07-29T09:21:47;25.40;93.40
17938;DHT22;16051;53.024;8.630;2022-07-29T09:26:05;25.50;93.30
17938;DHT22;16051;53.024;8.630;2022-07-29T09:30:09;24.90;93.80
17938;DHT22;16051;53.024;8.630;2022-07-29T09:34:20;25.20;93.80
17938;DHT22;16051;53.024;8.630;2022-07-29T09:38:24;25.20;93.10
17938;DHT22;16051;53.024;8.630;2022-07-29T09:42:31;25.10;93.60
17938;DHT22;16051;53.024;8.630;2022-07-29T09:46:34;25.10;93.40
17938;DHT22;16051;53.024;8.630;2022-07-29T09:50:38;25.20;93.50
17938;DHT22;16051;53.024;8.630;2022-07-29T09:54:41;25.40;93.70
17938;DHT22;16051;53.024;8.630;2022-07-29T09:58:45;25.70;92.30
17938;DHT22;16051;53.024;8.630;2022-07-29T10:02:47;25.60;92.20
17938;DHT22;16051;53.024;8.630;2022-07-29T10:07:08;25.50;93.00
17938;DHT22;16051;53.024;8.630;2022-07-29T10:11:12;25.80;92.80
17938;DHT22;16051;53.024;8.630;2022-07-29T10:15:25;25.70;91.70
17938;DHT22;16051;53.024;8.630;2022-07-29T10:19:30;26.10;91.70
17938;DHT22;16051;53.024;8.630;2022-07-29T10:23:34;26.70;91.40
17938;DHT22;16051;53.024;8.630;2022-07-29T10:27:36;26.80;90.90
17938;DHT22;16051;53.024;8.630;2022-07-29T10:31:47;27.20;86.90
17938;DHT22;16051;53.024;8.630;2022-07-29T10:36:11;27.70;87.30
17938;DHT22;16051;53.024;8.630;2022-07-29T10:40:30;28.10;89.20
17938;DHT22;16051;53.024;8.630;2022-07-29T10:45:01;29.00;84.30
17938;DHT22;16051;53.024;8.630;2022-07-29T10:49:11;28.70;80.00
17938;DHT22;16051;53.024;8.630;2022-07-29T10:53:15;28.20;80.80
17938;DHT22;16051;53.024;8.630;2022-07-29T10:57:20;27.70;81.30
17938;DHT22;16051;53.024;8.630;2022-07-29T11:01:30;28.20;81.30
17938;DHT22;16051;53.024;8.630;2022-07-29T11:10:22;28.60;77.80
17938;DHT22;16051;53.024;8.630;2022-07-29T11:14:55;29.30;77.70
17938;DHT22;16051;53.024;8.630;2022-07-29T11:19:20;30.00;74.00
17938;DHT22;16051;53.024;8.630;2022-07-29T11:23:27;29.40;74.00
17938;DHT22;16051;53.024;8.630;2022-07-29T11:27:41;28.90;75.40
17938;DHT22;16051;53.024;8.630;2022-07-29T11:31:44;29.30;72.70
17938;DHT22;16051;53.024;8.630;2022-07-29T11:36:07;29.30;72.60
17938;DHT22;16051;53.024;8.630;2022-07-29T11:40:14;29.50;72.90
17938;DHT22;16051;53.024;8.630;2022-07-29T11:44:54;28.90;72.70
17938;DHT22;16051;53.024;8.630;2022-07-29T11:48:58;28.40;74.70
17938;DHT22;16051;53.024;8.630;2022-07-29T11:53:03;28.10;73.90
17938;DHT22;16051;53.024;8.630;2022-07-29T11:57:14;27.80;74.80
17938;DHT22;16051;53.024;8.630;2022-07-29T12:01:18;27.50;75.20
17938;DHT22;16051;53.024;8.630;2022-07-29T12:05:50;27.50;76.00
17938;DHT22;16051;53.024;8.630;2022-07-29T12:09:54;27.50;75.80
17938;DHT22;16051;53.024;8.630;2022-07-29T12:13:57;27.40;76.80
17938;DHT22;16051;53.024;8.630;2022-07-29T12:18:09;27.20;76.30
17938;DHT22;16051;53.024;8.630;2022-07-29T12:22:24;27.20;78.30
17938;DHT22;16051;53.024;8.630;2022-07-29T12:26:27;27.40;75.90
17938;DHT22;16051;53.024;8.630;2022-07-29T12:30:39;27.50;76.00
17938;DHT22;16051;53.024;8.630;2022-07-29T12:34:43;27.40;76.70
17938;DHT22;16051;53.024;8.630;2022-07-29T12:38:46;27.50;75.30
17938;DHT22;16051;53.024;8.630;2022-07-29T12:43:06;27.50;75.50
17938;DHT22;16051;53.024;8.630;2022-07-29T12:47:11;28.10;76.80
17938;DHT22;16051;53.024;8.630;2022-07-29T12:51:13;29.80;72.10
17938;DHT22;16051;53.024;8.630;2022-07-29T12:55:41;31.00;67.50
17938;DHT22;16051;53.024;8.630;2022-07-29T12:59:47;30.40;66.70
17938;DHT22;16051;53.024;8.630;2022-07-29T13:04:02;30.00;67.10
17938;DHT22;16051;53.024;8.630;2022-07-29T13:08:35;30.00;67.50
17938;DHT22;16051;53.024;8.630;2022-07-29T13:12:37;29.80;65.90
17938;DHT22;16051;53.024;8.630;2022-07-29T13:17:01;29.10;68.70
17938;DHT22;16051;53.024;8.630;2022-07-29T13:21:14;29.10;68.50
17938;DHT22;16051;53.024;8.630;2022-07-29T13:25:24;28.40;69.00
17938;DHT22;16051;53.024;8.630;2022-07-29T13:29:27;28.20;67.20
17938;DHT22;16051;53.024;8.630;2022-07-29T13:33:29;27.90;71.80
17938;DHT22;16051;53.024;8.630;2022-07-29T13:37:33;27.60;71.00
17938;DHT22;16051;53.024;8.630;2022-07-29T13:41:38;27.70;72.10
17938;DHT22;16051;53.024;8.630;2022-07-29T13:45:40;27.40;71.70
17938;DHT22;16051;53.024;8.630;2022-07-29T13:49:42;27.20;71.80
17938;DHT22;16051;53.024;8.630;2022-07-29T13:53:46;27.30;72.70
17938;DHT22;16051;53.024;8.630;2022-07-29T13:57:48;27.10;72.30
17938;DHT22;16051;53.024;8.630;2022-07-29T14:01:50;26.90;73.90
17938;DHT22;16051;53.024;8.630;2022-07-29T14:05:52;26.60;73.00
17938;DHT22;16051;53.024;8.630;2022-07-29T14:09:55;26.70;75.10
17938;DHT22;16051;53.024;8.630;2022-07-29T14:13:58;26.60;74.10
17938;DHT22;16051;53.024;8.630;2022-07-29T14:18:01;26.50;74.60
17938;DHT22;16051;53.024;8.630;2022-07-29T14:22:04;26.20;73.40
17938;DHT22;16051;53.024;8.630;2022-07-29T14:26:08;26.40;75.20
17938;DHT22;16051;53.024;8.630;2022-07-29T14:30:11;26.30;74.60
17938;DHT22;16051;53.024;8.630;2022-07-29T14:34:14;26.00;75.50
17938;DHT22;16051;53.024;8.630;2022-07-29T14:38:16;25.90;77.30
17938;DHT22;16051;53.024;8.630;2022-07-29T14:42:27;25.60;77.30
17938;DHT22;16051;53.024;8.630;2022-07-29T14:46:29;25.40;78.30
17938;DHT22;16051;53.024;8.630;2022-07-29T14:50:31;25.40;79.50
17938;DHT22;16051;53.024;8.630;2022-07-29T14:54:33;25.30;80.10
17938;DHT22;16051;53.024;8.630;2022-07-29T14:58:37;25.10;80.90
17938;DHT22;16051;53.024;8.630;2022-07-29T15:02:39;25.00;79.80
17938;DHT22;16051;53.024;8.630;2022-07-29T15:06:41;25.00;81.10
17938;DHT22;16051;53.024;8.630;2022-07-29T15:10:43;25.00;78.90
17938;DHT22;16051;53.024;8.630;2022-07-29T15:14:46;24.90;81.40
17938;DHT22;16051;53.024;8.630;2022-07-29T15:18:49;24.80;82.00
17938;DHT22;16051;53.024;8.630;2022-07-29T15:22:51;24.90;79.90
17938;DHT22;16051;53.024;8.630;2022-07-29T15:26:53;25.00;81.20
17938;DHT22;16051;53.024;8.630;2022-07-29T15:30:57;24.90;79.20
17938;DHT22;16051;53.024;8.630;2022-07-29T15:34:59;25.00;81.10
17938;DHT22;16051;53.024;8.630;2022-07-29T15:39:01;25.00;80.90
17938;DHT22;16051;53.024;8.630;2022-07-29T15:43:04;25.00;80.60
17938;DHT22;16051;53.024;8.630;2022-07-29T15:47:08;25.00;82.00
17938;DHT22;16051;53.024;8.630;2022-07-29T15:51:10;24.90;81.30
17938;DHT22;16051;53.024;8.630;2022-07-29T15:55:12;24.80;81.10
17938;DHT22;16051;53.024;8.630;2022-07-29T15:59:15;24.80;82.10
17938;DHT22;16051;53.024;8.630;2022-07-29T16:03:19;24.80;82.50
17938;DHT22;16051;53.024;8.630;2022-07-29T16:07:33;24.70;81.40
17938;DHT22;16051;53.024;8.630;2022-07-29T16:11:35;24.70;81.70
17938;DHT22;16051;53.024;8.630;2022-07-29T16:15:37;24.60;83.10
17938;DHT22;16051;53.024;8.630;2022-07-29T16:19:47;24.50;81.90
17938;DHT22;16051;53.024;8.630;2022-07-29T16:23:49;24.40;83.40
17938;DHT22;16051;53.024;8.630;2022-07-29T16:27:52;24.40;83.40
17938;DHT22;16051;53.024;8.630;2022-07-29T16:31:54;24.30;85.20
17938;DHT22;16051;53.024;8.630;2022-07-29T16:35:58;24.10;88.00
17938;DHT22;16051;53.024;8.630;2022-07-29T16:40:00;23.80;90.10
17938;DHT22;16051;53.024;8.630;2022-07-29T16:44:03;23.80;91.40
17938;DHT22;16051;53.024;8.630;2022-07-29T16:48:39;23.60;92.60
17938;DHT22;16051;53.024;8.630;2022-07-29T16:52:43;23.50;93.40
17938;DHT22;16051;53.024;8.630;2022-07-29T16:56:50;23.50;94.60
17938;DHT22;16051;53.024;8.630;2022-07-29T17:00:52;23.70;95.00
17938;DHT22;16051;53.024;8.630;2022-07-29T17:04:54;23.80;96.10
17938;DHT22;16051;53.024;8.630;2022-07-29T17:08:58;23.80;97.30
17938;DHT22;16051;53.024;8.630;2022-07-29T17:13:00;23.70;98.00
17938;DHT22;16051;53.024;8.630;2022-07-29T17:17:02;23.70;97.30
17938;DHT22;16051;53.024;8.630;2022-07-29T17:21:05;23.60;96.10
17938;DHT22;16051;53.024;8.630;2022-07-29T17:25:08;23.50;96.10
17938;DHT22;16051;53.024;8.630;2022-07-29T17:29:13;23.40;96.10
17938;DHT22;16051;53.024;8.630;2022-07-29T17:33:15;23.30;96.20
17938;DHT22;16051;53.024;8.630;2022-07-29T17:37:17;23.20;96.30
17938;DHT22;16051;53.024;8.630;2022-07-29T17:41:22;23.10;96.30
17938;DHT22;16051;53.024;8.630;2022-07-29T17:45:30;23.10;96.40
17938;DHT22;16051;53.024;8.630;2022-07-29T17:49:32;23.00;96.30
17938;DHT22;16051;53.024;8.630;2022-07-29T17:53:35;23.00;96.40
17938;DHT22;16051;53.024;8.630;2022-07-29T17:57:38;23.00;96.40
17938;DHT22;16051;53.024;8.630;2022-07-29T18:01:40;22.80;96.40
17938;DHT22;16051;53.024;8.630;2022-07-29T18:05:43;22.80;96.50
17938;DHT22;16051;53.024;8.630;2022-07-29T18:09:45;22.70;96.40
17938;DHT22;16051;53.024;8.630;2022-07-29T18:13:50;22.70;96.30
17938;DHT22;16051;53.024;8.630;2022-07-29T18:17:55;22.70;96.40
17938;DHT22;16051;53.024;8.630;2022-07-29T18:21:57;22.70;96.60
17938;DHT22;16051;53.024;8.630;2022-07-29T18:25:59;22.60;96.70
17938;DHT22;16051;53.024;8.630;2022-07-29T18:30:09;22.50;96.80
17938;DHT22;16051;53.024;8.630;2022-07-29T18:34:11;22.50;97.00
17938;DHT22;16051;53.024;8.630;2022-07-29T18:38:13;22.50;97.10
17938;DHT22;16051;53.024;8.630;2022-07-29T18:42:15;22.50;97.30
17938;DHT22;16051;53.024;8.630;2022-07-29T18:46:18;22.40;97.30
17938;DHT22;16051;53.024;8.630;2022-07-29T18:50:21;22.30;97.70
17938;DHT22;16051;53.024;8.630;2022-07-29T18:54:24;22.30;97.90
17938;DHT22;16051;53.024;8.630;2022-07-29T18:58:26;22.30;98.10
17938;DHT22;16051;53.024;8.630;2022-07-29T19:02:29;22.30;98.30
17938;DHT22;16051;53.024;8.630;2022-07-29T19:06:37;22.20;98.40
17938;DHT22;16051;53.024;8.630;2022-07-29T19:10:40;22.10;98.60
17938;DHT22;16051;53.024;8.630;2022-07-29T19:14:42;22.10;98.90
17938;DHT22;16051;53.024;8.630;2022-07-29T19:18:45;22.00;99.10
17938;DHT22;16051;53.024;8.630;2022-07-29T19:22:48;22.00;99.20
17938;DHT22;16051;53.024;8.630;2022-07-29T19:26:50;21.90;99.40
17938;DHT22;16051;53.024;8.630;2022-07-29T19:30:52;21.90;99.60
17938;DHT22;16051;53.024;8.630;2022-07-29T19:34:58;21.90;99.90
17938;DHT22;16051;53.024;8.630;2022-07-29T19:39:18;21.90;99.90
17938;DHT22;16051;53.024;8.630;2022-07-29T19:43:20;21.80;99.90
17938;DHT22;16051;53.024;8.630;2022-07-29T19:47:22;21.80;99.90
17938;DHT22;16051;53.024;8.630;2022-07-29T19:51:26;21.70;99.90
17938;DHT22;16051;53.024;8.630;2022-07-29T19:55:28;21.70;99.90
17938;DHT22;16051;53.024;8.630;2022-07-29T19:59:30;21.70;99.90
17938;DHT22;16051;53.024;8.630;2022-07-29T20:03:32;21.60;99.90
17938;DHT22;16051;53.024;8.630;2022-07-29T20:07:36;21.60;99.90
17938;DHT22;16051;53.024;8.630;2022-07-29T20:11:49;21.50;99.90
17938;DHT22;16051;53.024;8.630;2022-07-29T20:15:51;21.50;99.90
17938;DHT22;16051;53.024;8.630;2022-07-29T20:19:54;21.50;99.90
17938;DHT22;16051;53.024;8.630;2022-07-29T20:24:01;21.40;99.90
17938;DHT22;16051;53.024;8.630;2022-07-29T20:28:04;21.40;99.90
17938;DHT22;16051;53.024;8.630;2022-07-29T20:32:07;21.30;99.90
17938;DHT22;16051;53.024;8.630;2022-07-29T20:36:09;21.30;99.90
17938;DHT22;16051;53.024;8.630;2022-07-29T20:40:12;21.30;99.90
17938;DHT22;16051;53.024;8.630;2022-07-29T20:44:16;21.30;99.90
17938;DHT22;16051;53.024;8.630;2022-07-29T20:48:19;21.20;99.90
17938;DHT22;16051;53.024;8.630;2022-07-29T20:52:21;21.20;99.90
17938;DHT22;16051;53.024;8.630;2022-07-29T20:56:25;21.20;99.90
17938;DHT22;16051;53.024;8.630;2022-07-29T21:00:27;21.20;99.90
17938;DHT22;16051;53.024;8.630;2022-07-29T21:04:29;21.10;99.90
17938;DHT22;16051;53.024;8.630;2022-07-29T21:08:31;21.10;99.90
17938;DHT22;16051;53.024;8.630;2022-07-29T21:12:35;21.10;99.90
17938;DHT22;16051;53.024;8.630;2022-07-29T21:16:39;21.00;99.90
17938;DHT22;16051;53.024;8.630;2022-07-29T21:20:41;20.90;99.90
17938;DHT22;16051;53.024;8.630;2022-07-29T21:24:43;20.90;99.90
17938;DHT22;16051;53.024;8.630;2022-07-29T21:28:47;20.90;99.90
17938;DHT22;16051;53.024;8.630;2022-07-29T21:32:49;20.90;99.90
17938;DHT22;16051;53.024;8.630;2022-07-29T21:36:51;20.80;99.90
17938;DHT22;16051;53.024;8.630;2022-07-29T21:40:53;20.80;99.90
17938;DHT22;16051;53.024;8.630;2022-07-29T21:44:57;20.70;99.90
17938;DHT22;16051;53.024;8.630;2022-07-29T21:48:59;20.70;99.90
17938;DHT22;16051;53.024;8.630;2022-07-29T21:53:01;20.70;99.90
17938;DHT22;16051;53.024;8.630;2022-07-29T21:57:21;20.60;99.90
17938;DHT22;16051;53.024;8.630;2022-07-29T22:01:24;20.60;99.90
17938;DHT22;16051;53.024;8.630;2022-07-29T22:05:27;20.50;99.90
17938;DHT22;16051;53.024;8.630;2022-07-29T22:09:29;20.50;99.90
17938;DHT22;16051;53.024;8.630;2022-07-29T22:13:31;20.50;99.90
17938;DHT22;16051;53.024;8.630;2022-07-29T22:17:35;20.40;99.90
17938;DHT22;16051;53.024;8.630;2022-07-29T22:21:37;20.40;99.90
17938;DHT22;16051;53.024;8.630;2022-07-29T22:25:39;20.40;99.90
17938;DHT22;16051;53.024;8.630;2022-07-29T22:29:42;20.40;99.90
17938;DHT22;16051;53.024;8.630;2022-07-29T22:33:58;20.40;99.90
17938;DHT22;16051;53.024;8.630;2022-07-29T22:38:00;20.30;99.90
17938;DHT22;16051;53.024;8.630;2022-07-29T22:42:03;20.30;99.90
17938;DHT22;16051;53.024;8.630;2022-07-29T22:46:07;20.30;99.90
17938;DHT22;16051;53.024;8.630;2022-07-29T22:50:11;20.20;99.90
17938;DHT22;16051;53.024;8.630;2022-07-29T22:54:13;20.20;99.90
17938;DHT22;16051;53.024;8.630;2022-07-29T22:58:15;20.20;99.90
17938;DHT22;16051;53.024;8.630;2022-07-29T23:02:17;20.20;99.90
17938;DHT22;16051;53.024;8.630;2022-07-29T23:06:29;20.10;99.90
17938;DHT22;16051;53.024;8.630;2022-07-29T23:10:31;20.10;99.90
17938;DHT22;16051;53.024;8.630;2022-07-29T23:14:34;20.10;99.90
17938;DHT22;16051;53.024;8.630;2022-07-29T23:18:37;20.10;99.90
17938;DHT22;16051;53.024;8.630;2022-07-29T23:22:41;20.10;99.90
17938;DHT22;16051;53.024;8.630;2022-07-29T23:26:53;20.00;99.90
17938;DHT22;16051;53.024;8.630;2022-07-29T23:30:55;20.00;99.90
17938;DHT22;16051;53.024;8.630;2022-07-29T23:34:58;20.00;99.90
17938;DHT22;16051;53.024;8.630;2022-07-29T23:39:01;19.90;99.90
17938;DHT22;16051;53.024;8.630;2022-07-29T23:43:03;19.90;99.90
17938;DHT22;16051;53.024;8.630;2022-07-29T23:47:05;19.90;99.90
17938;DHT22;16051;53.024;8.630;2022-07-29T23:51:07;19.80;99.90
17938;DHT22;16051;53.024;8.630;2022-07-29T23:55:12;19.80;99.90
17938;DHT22;16051;53.024;8.630;2022-07-29T23:59:14;19.80;99.90
